createdAt,value
2022-08-27T14:09:34.012Z,15.60
2022-08-27T14:12:06.549Z,16.05
2022-08-27T14:14:39.498Z,19.27
2022-08-27T14:17:19.975Z,14.45
2022-08-27T14:19:47.888Z,21.50
2022-08-27T14:22:17.382Z,17.63
2022-08-27T14:24:44.263Z,20.35
2022-08-27T14:27:14.678Z,15.82
2022-08-27T14:29:41.767Z,14.35
2022-08-27T14:32:08.965Z,16.52
2022-08-27T14:34:36.611Z,16.00
2022-08-27T14:37:04.777Z,16.65
2022-08-27T14:39:31.981Z,16.80
2022-08-27T14:41:59.320Z,16.25
2022-08-27T14:44:27.015Z,13.30
2022-08-27T14:46:54.725Z,14.52
2022-08-27T14:49:34.958Z,16.15
2022-08-27T14:52:04.444Z,13.52
2022-08-27T14:54:33.602Z,14.68
2022-08-27T14:57:02.379Z,18.55
2022-08-27T14:59:29.410Z,10.70
2022-08-27T15:02:01.474Z,17.58
2022-08-27T15:04:29.228Z,14.82
2022-08-27T15:06:56.151Z,13.23
2022-08-27T15:09:23.132Z,17.23
2022-08-27T15:11:51.086Z,13.18
2022-08-27T15:14:26.466Z,13.57
2022-08-27T15:16:54.170Z,16.60
2022-08-27T15:19:23.297Z,13.23
2022-08-27T15:21:52.058Z,14.98
2022-08-27T15:24:28.299Z,16.20
2022-08-27T15:26:59.619Z,11.82
2022-08-27T15:29:27.212Z,11.32
2022-08-27T15:31:54.430Z,17.63
2022-08-27T15:34:21.756Z,16.30
2022-08-27T15:36:48.614Z,15.25
2022-08-27T15:39:15.569Z,14.63
2022-08-27T15:42:05.052Z,10.73
2022-08-27T15:44:30.562Z,12.00
2022-08-27T15:46:57.597Z,18.27
2022-08-27T15:49:24.470Z,15.05
2022-08-27T15:51:52.030Z,16.75
2022-08-27T15:54:19.587Z,15.93
2022-08-27T15:56:46.523Z,14.25
2022-08-27T15:59:13.370Z,17.15
2022-08-27T16:01:40.316Z,13.73
2022-08-27T16:04:07.980Z,17.10
2022-08-27T16:06:35.108Z,16.73
2022-08-27T16:09:02.811Z,14.15
2022-08-27T16:11:32.248Z,14.70
2022-08-27T16:13:59.278Z,16.45
2022-08-27T16:16:30.851Z,15.85
2022-08-27T16:19:01.334Z,12.90
2022-08-27T16:21:28.763Z,12.38
2022-08-27T16:23:55.589Z,11.63
2022-08-27T16:26:23.137Z,13.43
2022-08-27T16:28:49.881Z,16.88
2022-08-27T16:31:16.833Z,9.93
2022-08-27T16:33:44.010Z,10.23
2022-08-27T16:36:11.165Z,16.05
2022-08-27T16:38:38.189Z,12.15
2022-08-27T16:41:05.688Z,9.63
2022-08-27T16:43:33.045Z,7.63
2022-08-27T16:46:01.820Z,12.57
2022-08-27T16:48:47.725Z,8.70
2022-08-27T16:51:32.648Z,9.57
2022-08-27T16:54:01.715Z,6.45
2022-08-27T16:56:28.744Z,5.55
2022-08-27T16:58:55.643Z,8.48
2022-08-27T17:01:24.984Z,9.13
2022-08-27T17:04:09.040Z,8.52
2022-08-27T17:06:40.108Z,7.57
2022-08-27T17:09:07.278Z,8.30
2022-08-27T17:11:36.179Z,9.73
2022-08-27T17:14:04.626Z,8.63
2022-08-27T17:16:33.512Z,6.65
2022-08-27T17:19:02.306Z,8.70
2022-08-27T17:21:30.312Z,8.15
2022-08-27T17:24:01.810Z,7.38
2022-08-27T17:26:30.330Z,9.75
2022-08-27T17:28:57.760Z,8.57
2022-08-27T17:31:33.401Z,6.85
2022-08-27T17:34:00.778Z,9.27
2022-08-27T17:36:30.398Z,5.72
2022-08-27T17:38:57.647Z,6.22
2022-08-27T17:41:36.803Z,7.05
2022-08-27T17:44:24.225Z,11.18
2022-08-27T17:46:52.469Z,7.35
2022-08-27T17:49:19.362Z,5.65
2022-08-27T17:51:48.417Z,5.63
2022-08-27T17:54:26.275Z,7.72
2022-08-27T17:56:53.022Z,10.25
2022-08-27T17:59:20.486Z,6.55
2022-08-27T18:01:47.828Z,6.97
2022-08-27T18:04:15.099Z,7.72
2022-08-27T18:06:42.139Z,8.23
2022-08-27T18:09:09.434Z,4.35
2022-08-27T18:11:39.238Z,11.32
2022-08-27T18:14:06.112Z,6.43
2022-08-27T18:16:33.874Z,11.25
2022-08-27T18:19:06.843Z,7.43
2022-08-27T18:21:34.104Z,9.60
2022-08-27T18:24:01.250Z,9.82
2022-08-27T18:26:29.567Z,7.93
2022-08-27T18:28:57.895Z,7.65
2022-08-27T18:31:32.740Z,8.95
2022-08-27T18:34:00.868Z,6.03
2022-08-27T18:36:27.944Z,8.90
2022-08-27T18:38:54.752Z,7.85
2022-08-27T18:41:22.622Z,8.57
2022-08-27T18:43:49.730Z,12.15
2022-08-27T18:46:17.316Z,7.93
2022-08-27T18:48:44.359Z,5.53
2022-08-27T18:51:14.037Z,5.10
2022-08-27T18:53:42.881Z,6.38
2022-08-27T18:56:12.167Z,6.95
2022-08-27T18:58:43.702Z,6.03
2022-08-27T19:01:14.128Z,6.63
2022-08-27T19:03:48.385Z,3.80
2022-08-27T19:06:18.029Z,8.85
2022-08-27T19:08:44.876Z,7.40
2022-08-27T19:11:11.785Z,4.80
2022-08-27T19:13:39.158Z,7.15
2022-08-27T19:16:18.748Z,7.72
2022-08-27T19:18:46.851Z,6.28
2022-08-27T19:21:14.258Z,6.63
2022-08-27T19:23:41.697Z,7.82
2022-08-27T19:26:15.969Z,6.30
2022-08-27T19:28:45.203Z,9.00
2022-08-27T19:31:13.472Z,7.20
2022-08-27T19:33:40.519Z,7.65
2022-08-27T19:36:12.591Z,9.05
2022-08-27T19:38:43.319Z,6.93
2022-08-27T19:41:10.244Z,5.75
2022-08-27T19:43:37.764Z,5.18
2022-08-27T19:46:07.579Z,7.75
2022-08-27T19:48:34.584Z,6.53
2022-08-27T19:51:01.559Z,7.32
2022-08-27T19:53:28.376Z,10.65
2022-08-27T19:55:55.289Z,5.80
2022-08-27T19:58:22.384Z,7.72
2022-08-27T20:00:49.399Z,8.15
2022-08-27T20:03:16.613Z,6.25
2022-08-27T20:05:45.486Z,7.63
2022-08-27T20:08:12.736Z,7.18
2022-08-27T20:10:40.236Z,6.70
2022-08-27T20:13:08.050Z,5.13
2022-08-27T20:15:36.594Z,5.90
2022-08-27T20:18:05.686Z,4.68
2022-08-27T20:20:34.091Z,8.27
2022-08-27T20:23:02.923Z,6.28
2022-08-27T20:25:30.172Z,4.90
2022-08-27T20:27:57.003Z,6.85
2022-08-27T20:30:26.809Z,7.68
2022-08-27T20:32:53.715Z,8.25
2022-08-27T20:35:21.870Z,7.40
2022-08-27T20:37:48.630Z,9.15
2022-08-27T20:40:21.663Z,8.95
2022-08-27T20:42:48.624Z,6.95
2022-08-27T20:45:16.774Z,7.15
2022-08-27T20:47:45.946Z,9.68
2022-08-27T20:50:13.897Z,5.05
2022-08-27T20:52:41.551Z,6.10
2022-08-27T20:55:10.126Z,7.18
2022-08-27T20:57:36.958Z,6.93
2022-08-27T21:00:20.501Z,5.68
2022-08-27T21:02:47.912Z,10.55
2022-08-27T21:05:16.765Z,4.80
2022-08-27T21:07:44.661Z,11.35
2022-08-27T21:10:11.814Z,7.32
2022-08-27T21:12:38.572Z,5.40
2022-08-27T21:15:07.345Z,7.03
2022-08-27T21:17:34.289Z,7.05
2022-08-27T21:20:01.803Z,6.45
2022-08-27T21:22:28.567Z,6.95
2022-08-27T21:24:55.648Z,6.22
2022-08-27T21:27:22.777Z,7.35
2022-08-27T21:29:50.350Z,6.22
2022-08-27T21:32:17.686Z,6.95
2022-08-27T21:34:44.757Z,10.35
2022-08-27T21:37:13.872Z,5.22
2022-08-27T21:39:42.554Z,9.07
2022-08-27T21:42:10.138Z,5.65
2022-08-27T21:44:37.476Z,6.13
2022-08-27T21:47:05.558Z,6.85
2022-08-27T21:49:33.037Z,8.68
2022-08-27T21:52:03.361Z,7.68
2022-08-27T21:54:32.903Z,9.90
2022-08-27T21:57:00.779Z,8.02
2022-08-27T21:59:27.863Z,6.43
2022-08-27T22:02:00.565Z,8.15
2022-08-27T22:04:30.653Z,5.90
2022-08-27T22:06:58.860Z,6.80
2022-08-27T22:09:26.193Z,7.85
2022-08-27T22:11:53.419Z,6.53
2022-08-27T22:14:21.501Z,6.28
2022-08-27T22:16:48.339Z,9.00
2022-08-27T22:19:15.227Z,8.80
2022-08-27T22:21:42.675Z,8.07
2022-08-27T22:24:09.600Z,8.45
2022-08-27T22:26:37.070Z,6.35
2022-08-27T22:29:06.523Z,6.90
2022-08-27T22:31:36.098Z,6.55
2022-08-27T22:34:05.023Z,6.10
2022-08-27T22:36:35.323Z,5.75
2022-08-27T22:39:04.410Z,10.18
2022-08-27T22:41:36.458Z,8.90
2022-08-27T22:44:09.313Z,6.90
2022-08-27T22:49:19.170Z,7.40
2022-08-27T22:51:46.578Z,7.55
2022-08-27T22:54:19.039Z,11.00
2022-08-27T22:56:45.961Z,7.45
2022-08-27T22:59:14.208Z,9.27
2022-08-27T23:01:41.113Z,5.40
2022-08-27T23:04:08.257Z,7.55
2022-08-27T23:06:35.526Z,8.35
2022-08-27T23:09:02.484Z,9.95
2022-08-27T23:11:31.990Z,10.70
2022-08-27T23:14:00.820Z,5.55
2022-08-27T23:16:51.961Z,5.35
2022-08-27T23:19:19.224Z,11.68
2022-08-27T23:21:46.147Z,6.47
2022-08-27T23:24:13.000Z,10.52
2022-08-27T23:26:58.340Z,11.02
2022-08-27T23:29:25.197Z,7.30
2022-08-27T23:31:52.708Z,8.57
2022-08-27T23:34:20.343Z,10.32
2022-08-27T23:36:47.993Z,4.43
2022-08-27T23:39:15.755Z,8.45
2022-08-27T23:41:44.039Z,5.57
2022-08-27T23:44:11.969Z,7.80
2022-08-27T23:46:39.422Z,8.35
2022-08-27T23:49:06.342Z,7.13
2022-08-27T23:51:33.811Z,7.28
2022-08-27T23:54:00.749Z,6.68
2022-08-27T23:56:30.090Z,7.03
2022-08-27T23:58:57.127Z,7.18
